Huvudsida
METAR-TAF:

METAR-TAF

Flygplatser :

Esbjergs flygplats

Esbjerg, Danmark

latitud: 55-32N, longitud: 008-34E, höjd: 30 m

Aktuellt väderrapport

Denna rapport gjordes för 45 minuter sedan, klockan 11:50 UTC
Vind 12 kt från väst/sydväst
Temperatur 10°C
Fuktighet 87%
Tryck 1029 hPa
Sikt: 7000 m
Brutna moln på en höjd av 700 ft

METAR: EKEB 211150Z 24012KT 7000 BKN007 10/08 Q1029

Tid: 13:35 (12:35 UTC)

Väderprognos

Denna rapport gjordes för 1 timme och 12 minuter sedan, klockan 11:23 UTC
Prognos gäller från 21 kl. 12 UTC till 21 kl. 21 UTC
Vind 12 kt från väst/sydväst
Sikt: 8000 m
Brutna moln på en höjd av 1200 ft
Temporärt
från 21 kl. 12 UTC till 21 kl. 21 UTC
Sikt: 2500 m
Brutna moln på en höjd av 200 ft
fuktdis

TAF: EKEB 211123Z 2112/2121 24012KT 8000 BKN012 TEMPO 2112/2121 2500 BR BKN002

Aktuella väderrapporter och prognoser från 4000 flygplatser (METAR- och TAF-rapporter).

De tillgängliga stationerna syns som gula och röda prickar på kartan.

För musen över prickarna för att se namnen på stationerna.

Klicka sedan för att få väderrapporter och prognoser.

För att ändra kartan: Klicka på de gröna knapparna med ett svart kors på för att zooma in; den gröna knappen med ett streck på för att zooma ut; eller på de gröna pilarna för angränsande kartor.


METAR-TAF: